T/t Next Chapter — KDL9487 — position and weather

sailwx.info

Track history (hours):
 
Tides and Currents Weather Stations Pressure Air Temp Water Temp Dewpoint Dewpoint Depression Visibility Wind Speed Wind Dir Waves Ship Positions

T/t Next Chapter

Last reported at 2017-Aug-31 11:30 UTC. Time now 2017-Sep-24 19:37 UTC.
Position N 42°18' W 070°47'.
Warning: this ship's position is 24 days out of date.

Type: High speed craft. MMSI: 338242537.

Date/timePositionNaut miles runAvg speedWind from/ knotsBaromVisibWave heightAir tempDewpointWater temp
2017-Aug-31 11:30N 42°18' W 070°47'612.4
2017-Aug-31 11:00N 42°19' W 070°55'610.4
2017-Aug-31 10:25N 42°22' W 071°03'0 0.0
2017-Aug-30 18:40N 42°22' W 071°03'1 6.9
2017-Aug-30 18:30N 42°21' W 071°02'1 0.1
2017-Aug-29 20:24N 42°22' W 071°03'4 9.0
2017-Aug-29 20:00N 42°20' W 070°58'1 1.4
2017-Aug-29 19:29N 42°21' W 070°57'0 0.0
2017-Aug-29 18:59N 42°21' W 070°57'0 0.0
2017-Aug-29 18:29N 42°21' W 070°57'0 0.0
2017-Aug-29 17:59N 42°21' W 070°57'0 0.9
2017-Aug-29 17:30N 42°21' W 070°58'2 4.3
2017-Aug-29 16:58N 42°21' W 071°01'1 0.5
2017-Aug-29 14:28N 42°21' W 071°02'17 3.9
2017-Aug-29 10:12N 42°22' W 070°40'733.5
2017-Aug-29 10:00N 42°22' W 070°49'10 1.2
2017-Aug-29 01:31N 42°22' W 071°03'0 0.0
2017-Aug-29 01:08N 42°22' W 071°03'0 0.0
2017-Aug-29 01:00N 42°22' W 071°03'0 0.0
2017-Aug-29 00:17N 42°22' W 071°03'0 0.0
2017-Aug-28 01:39N 42°22' W 071°03'0 0.0
2017-Aug-28 01:27N 42°22' W 071°03'511.6
2017-Aug-28 01:00N 42°21' W 070°56'610.8
2017-Aug-28 00:25N 42°25' W 070°49'4 8.9
2017-Aug-28 00:00N 42°27' W 070°45'612.0
2017-Aug-27 23:30N 42°31' W 070°39'612.1
2017-Aug-27 23:00N 42°36' W 070°34'612.1
2017-Aug-27 22:29N 42°42' W 070°31'612.2
2017-Aug-27 21:59N 42°48' W 070°29'611.9
2017-Aug-27 21:29N 42°54' W 070°27'611.8
2017-Aug-27 21:00N 42°59' W 070°25'5 0.2
2017-Aug-26 21:14N 43°04' W 070°25'1548.4
2017-Aug-26 20:56N 42°50' W 070°22'0 0.1
2017-Aug-26 20:30N 42°50' W 070°22'0 0.1
2017-Aug-26 20:00N 42°50' W 070°22'5413.1
2017-Aug-26 15:55N 43°42' W 070°04'3 6.3
2017-Aug-26 15:29N 43°44' W 070°02'0 0.6
2017-Aug-26 14:59N 43°44' W 070°02'0 0.1
2017-Aug-26 11:54N 43°44' W 070°02'0 0.0
2017-Aug-26 11:30N 43°44' W 070°02'0 0.0
2017-Aug-26 09:09N 43°44' W 070°02'0 0.0
2017-Aug-26 08:59N 43°44' W 070°02'0 0.0
2017-Aug-26 08:28N 43°44' W 070°02'0 0.0
2017-Aug-26 07:54N 43°44' W 070°02'0 0.0
2017-Aug-26 07:28N 43°44' W 070°02'2 0.2
2017-Aug-25 20:16N 43°42' W 070°01'2 6.2
2017-Aug-25 20:00N 43°44' W 069°59'1 2.2
2017-Aug-25 19:30N 43°44' W 070°01'2 4.4
2017-Aug-25 19:00N 43°43' W 070°03'1 0.5
2017-Aug-25 16:22N 43°44' W 070°02'0 0.8
2017-Aug-25 16:00N 43°44' W 070°02'2 4.1
2017-Aug-25 15:30N 43°43' W 070°04'50 1.0
2017-Aug-23 13:28N 44°06' W 069°02'5 9.8
2017-Aug-23 13:00N 44°10' W 069°04'1 1.1
2017-Aug-23 12:07N 44°11' W 069°04'1 6.2
2017-Aug-23 12:00N 44°10' W 069°04'0 0.4
2017-Aug-23 11:26N 44°10' W 069°04'0 0.0
2017-Aug-23 11:00N 44°10' W 069°04'0 0.0
2017-Aug-23 10:30N 44°10' W 069°04'0 0.0
2017-Aug-23 10:00N 44°10' W 069°04'0 0.1
2017-Aug-23 09:30N 44°10' W 069°04'0 0.0
2017-Aug-23 08:54N 44°10' W 069°04'0 0.0
2017-Aug-23 08:30N 44°10' W 069°04'0 0.0
2017-Aug-23 07:56N 44°10' W 069°04'0 0.0
2017-Aug-23 07:21N 44°10' W 069°04'0 0.0
2017-Aug-23 06:53N 44°10' W 069°04'0 0.0
2017-Aug-23 06:27N 44°10' W 069°04'0 0.0
2017-Aug-23 05:56N 44°10' W 069°04'0 0.0
2017-Aug-23 05:29N 44°10' W 069°04'0 0.4
2017-Aug-23 04:58N 44°10' W 069°04'0 0.0
2017-Aug-23 04:30N 44°10' W 069°04'0 0.0
2017-Aug-23 03:58N 44°10' W 069°04'0 0.0
2017-Aug-23 03:28N 44°10' W 069°04'0 0.0
2017-Aug-23 02:49N 44°10' W 069°04'0 0.1
2017-Aug-23 02:22N 44°10' W 069°04'0 0.1
2017-Aug-23 01:58N 44°10' W 069°04'0 0.0
2017-Aug-23 01:28N 44°10' W 069°04'0 0.1
2017-Aug-23 01:00N 44°10' W 069°04'0 0.0
2017-Aug-23 00:30N 44°10' W 069°04'0 0.0
2017-Aug-22 23:58N 44°10' W 069°04'0 0.0
2017-Aug-22 23:28N 44°10' W 069°04'0 0.0
2017-Aug-22 22:58N 44°10' W 069°04'0 0.0
2017-Aug-22 22:27N 44°10' W 069°04'0 0.0
2017-Aug-22 21:54N 44°10' W 069°04'0 0.0
2017-Aug-22 21:27N 44°10' W 069°04'0 0.0
2017-Aug-22 21:00N 44°10' W 069°04'0 0.0
2017-Aug-22 20:30N 44°10' W 069°04'0 0.2
2017-Aug-22 19:59N 44°10' W 069°04'2 4.4
2017-Aug-22 19:29N 44°12' W 069°03'0 0.2
2017-Aug-22 19:00N 44°12' W 069°03'0 0.5
2017-Aug-22 18:29N 44°13' W 069°03'0 0.5
2017-Aug-22 17:55N 44°12' W 069°03'1 2.1
2017-Aug-22 17:27N 44°12' W 069°03'  
Track history (hours):
 
Tides and Currents Weather Stations Pressure Air Temp Water Temp Dewpoint Dewpoint Depression Visibility Wind Speed Wind Dir Waves Ship Positions

T/t Next Chapter

Last reported at 2017-Aug-31 11:30 UTC. Time now 2017-Sep-24 19:37 UTC.
Position N 42°18' W 070°47'.
Warning: this ship's position is 24 days out of date.

Type: High speed craft. MMSI: 338242537.

Date/timePositionNaut miles runAvg speedWind from/ knotsBaromVisibWave heightAir tempDewpointWater temp
2017-Aug-31 11:30N 42°18' W 070°47'612.4
2017-Aug-31 11:00N 42°19' W 070°55'610.4
2017-Aug-31 10:25N 42°22' W 071°03'0 0.0
2017-Aug-30 18:40N 42°22' W 071°03'1 6.9
2017-Aug-30 18:30N 42°21' W 071°02'1 0.1
2017-Aug-29 20:24N 42°22' W 071°03'4 9.0
2017-Aug-29 20:00N 42°20' W 070°58'1 1.4
2017-Aug-29 19:29N 42°21' W 070°57'0 0.0
2017-Aug-29 18:59N 42°21' W 070°57'0 0.0
2017-Aug-29 18:29N 42°21' W 070°57'0 0.0
2017-Aug-29 17:59N 42°21' W 070°57'0 0.9
2017-Aug-29 17:30N 42°21' W 070°58'2 4.3
2017-Aug-29 16:58N 42°21' W 071°01'1 0.5
2017-Aug-29 14:28N 42°21' W 071°02'17 3.9
2017-Aug-29 10:12N 42°22' W 070°40'733.5
2017-Aug-29 10:00N 42°22' W 070°49'10 1.2
2017-Aug-29 01:31N 42°22' W 071°03'0 0.0
2017-Aug-29 01:08N 42°22' W 071°03'0 0.0
2017-Aug-29 01:00N 42°22' W 071°03'0 0.0
2017-Aug-29 00:17N 42°22' W 071°03'0 0.0
2017-Aug-28 01:39N 42°22' W 071°03'0 0.0
2017-Aug-28 01:27N 42°22' W 071°03'511.6
2017-Aug-28 01:00N 42°21' W 070°56'610.8
2017-Aug-28 00:25N 42°25' W 070°49'4 8.9
2017-Aug-28 00:00N 42°27' W 070°45'612.0
2017-Aug-27 23:30N 42°31' W 070°39'612.1
2017-Aug-27 23:00N 42°36' W 070°34'612.1
2017-Aug-27 22:29N 42°42' W 070°31'612.2
2017-Aug-27 21:59N 42°48' W 070°29'611.9
2017-Aug-27 21:29N 42°54' W 070°27'611.8
2017-Aug-27 21:00N 42°59' W 070°25'5 0.2
2017-Aug-26 21:14N 43°04' W 070°25'1548.4
2017-Aug-26 20:56N 42°50' W 070°22'0 0.1
2017-Aug-26 20:30N 42°50' W 070°22'0 0.1
2017-Aug-26 20:00N 42°50' W 070°22'5413.1
2017-Aug-26 15:55N 43°42' W 070°04'3 6.3
2017-Aug-26 15:29N 43°44' W 070°02'0 0.6
2017-Aug-26 14:59N 43°44' W 070°02'0 0.1
2017-Aug-26 11:54N 43°44' W 070°02'0 0.0
2017-Aug-26 11:30N 43°44' W 070°02'0 0.0
2017-Aug-26 09:09N 43°44' W 070°02'0 0.0
2017-Aug-26 08:59N 43°44' W 070°02'0 0.0
2017-Aug-26 08:28N 43°44' W 070°02'0 0.0
2017-Aug-26 07:54N 43°44' W 070°02'0 0.0
2017-Aug-26 07:28N 43°44' W 070°02'2 0.2
2017-Aug-25 20:16N 43°42' W 070°01'2 6.2
2017-Aug-25 20:00N 43°44' W 069°59'1 2.2
2017-Aug-25 19:30N 43°44' W 070°01'2 4.4
2017-Aug-25 19:00N 43°43' W 070°03'1 0.5
2017-Aug-25 16:22N 43°44' W 070°02'0 0.8
2017-Aug-25 16:00N 43°44' W 070°02'2 4.1
2017-Aug-25 15:30N 43°43' W 070°04'50 1.0
2017-Aug-23 13:28N 44°06' W 069°02'5 9.8
2017-Aug-23 13:00N 44°10' W 069°04'1 1.1
2017-Aug-23 12:07N 44°11' W 069°04'1 6.2
2017-Aug-23 12:00N 44°10' W 069°04'0 0.4
2017-Aug-23 11:26N 44°10' W 069°04'0 0.0
2017-Aug-23 11:00N 44°10' W 069°04'0 0.0
2017-Aug-23 10:30N 44°10' W 069°04'0 0.0
2017-Aug-23 10:00N 44°10' W 069°04'0 0.1
2017-Aug-23 09:30N 44°10' W 069°04'0 0.0
2017-Aug-23 08:54N 44°10' W 069°04'0 0.0
2017-Aug-23 08:30N 44°10' W 069°04'0 0.0
2017-Aug-23 07:56N 44°10' W 069°04'0 0.0
2017-Aug-23 07:21N 44°10' W 069°04'0 0.0
2017-Aug-23 06:53N 44°10' W 069°04'0 0.0
2017-Aug-23 06:27N 44°10' W 069°04'0 0.0
2017-Aug-23 05:56N 44°10' W 069°04'0 0.0
2017-Aug-23 05:29N 44°10' W 069°04'0 0.4
2017-Aug-23 04:58N 44°10' W 069°04'0 0.0
2017-Aug-23 04:30N 44°10' W 069°04'0 0.0
2017-Aug-23 03:58N 44°10' W 069°04'0 0.0
2017-Aug-23 03:28N 44°10' W 069°04'0 0.0
2017-Aug-23 02:49N 44°10' W 069°04'0 0.1
2017-Aug-23 02:22N 44°10' W 069°04'0 0.1
2017-Aug-23 01:58N 44°10' W 069°04'0 0.0
2017-Aug-23 01:28N 44°10' W 069°04'0 0.1
2017-Aug-23 01:00N 44°10' W 069°04'0 0.0
2017-Aug-23 00:30N 44°10' W 069°04'0 0.0
2017-Aug-22 23:58N 44°10' W 069°04'0 0.0
2017-Aug-22 23:28N 44°10' W 069°04'0 0.0
2017-Aug-22 22:58N 44°10' W 069°04'0 0.0
2017-Aug-22 22:27N 44°10' W 069°04'0 0.0
2017-Aug-22 21:54N 44°10' W 069°04'0 0.0
2017-Aug-22 21:27N 44°10' W 069°04'0 0.0
2017-Aug-22 21:00N 44°10' W 069°04'0 0.0
2017-Aug-22 20:30N 44°10' W 069°04'0 0.2
2017-Aug-22 19:59N 44°10' W 069°04'2 4.4
2017-Aug-22 19:29N 44°12' W 069°03'0 0.2
2017-Aug-22 19:00N 44°12' W 069°03'0 0.5
2017-Aug-22 18:29N 44°13' W 069°03'0 0.5
2017-Aug-22 17:55N 44°12' W 069°03'1 2.1
2017-Aug-22 17:27N 44°12' W 069°03'  

Dump ship's entire track history